sensor_id;sensor_type;location;lat;lon;timestamp;P1;durP1;ratioP1;P2;durP2;ratioP2
32455;SDS011;18912;43.270;27.942;2023-12-22T00:00:43;11.27;;;4.97;;
32455;SDS011;18912;43.270;27.942;2023-12-22T00:03:12;10.00;;;5.22;;
32455;SDS011;18912;43.270;27.942;2023-12-22T00:08:04;11.65;;;5.88;;
32455;SDS011;18912;43.270;27.942;2023-12-22T00:10:29;12.35;;;5.75;;
32455;SDS011;18912;43.270;27.942;2023-12-22T00:12:55;13.50;;;6.47;;
32455;SDS011;18912;43.270;27.942;2023-12-22T00:15:20;14.70;;;7.73;;
32455;SDS011;18912;43.270;27.942;2023-12-22T00:17:45;15.73;;;7.77;;
32455;SDS011;18912;43.270;27.942;2023-12-22T00:20:11;16.77;;;7.50;;
32455;SDS011;18912;43.270;27.942;2023-12-22T00:22:38;26.15;;;11.00;;
32455;SDS011;18912;43.270;27.942;2023-12-22T00:25:03;28.87;;;10.13;;
32455;SDS011;18912;43.270;27.942;2023-12-22T00:27:29;20.10;;;9.93;;
32455;SDS011;18912;43.270;27.942;2023-12-22T00:29:55;27.87;;;10.53;;
32455;SDS011;18912;43.270;27.942;2023-12-22T00:32:20;22.40;;;10.37;;
32455;SDS011;18912;43.270;27.942;2023-12-22T00:34:46;27.53;;;10.87;;
32455;SDS011;18912;43.270;27.942;2023-12-22T00:37:11;25.43;;;10.80;;
32455;SDS011;18912;43.270;27.942;2023-12-22T00:39:37;24.42;;;11.13;;
32455;SDS011;18912;43.270;27.942;2023-12-22T00:42:03;20.70;;;9.30;;
32455;SDS011;18912;43.270;27.942;2023-12-22T00:44:29;23.50;;;10.40;;
32455;SDS011;18912;43.270;27.942;2023-12-22T00:46:55;27.38;;;11.23;;
32455;SDS011;18912;43.270;27.942;2023-12-22T00:49:21;23.83;;;10.00;;
32455;SDS011;18912;43.270;27.942;2023-12-22T00:51:47;15.30;;;7.13;;
32455;SDS011;18912;43.270;27.942;2023-12-22T00:54:12;14.23;;;7.05;;
32455;SDS011;18912;43.270;27.942;2023-12-22T00:56:38;16.30;;;6.83;;
32455;SDS011;18912;43.270;27.942;2023-12-22T00:59:03;13.83;;;5.67;;
32455;SDS011;18912;43.270;27.942;2023-12-22T01:01:29;11.13;;;5.37;;
32455;SDS011;18912;43.270;27.942;2023-12-22T01:03:54;12.40;;;5.97;;
32455;SDS011;18912;43.270;27.942;2023-12-22T01:06:20;19.37;;;6.00;;
32455;SDS011;18912;43.270;27.942;2023-12-22T01:08:45;12.00;;;5.97;;
32455;SDS011;18912;43.270;27.942;2023-12-22T01:11:14;10.70;;;5.05;;
32455;SDS011;18912;43.270;27.942;2023-12-22T01:13:41;9.57;;;4.65;;
32455;SDS011;18912;43.270;27.942;2023-12-22T01:16:06;9.67;;;4.50;;
32455;SDS011;18912;43.270;27.942;2023-12-22T01:18:32;13.47;;;4.97;;
32455;SDS011;18912;43.270;27.942;2023-12-22T01:20:58;9.23;;;4.18;;
32455;SDS011;18912;43.270;27.942;2023-12-22T01:23:24;9.50;;;3.63;;
32455;SDS011;18912;43.270;27.942;2023-12-22T01:25:50;9.27;;;3.80;;
32455;SDS011;18912;43.270;27.942;2023-12-22T01:28:16;10.65;;;3.42;;
32455;SDS011;18912;43.270;27.942;2023-12-22T01:30:41;9.57;;;3.57;;
32455;SDS011;18912;43.270;27.942;2023-12-22T01:33:07;8.37;;;3.33;;
32455;SDS011;18912;43.270;27.942;2023-12-22T01:35:33;6.83;;;3.50;;
32455;SDS011;18912;43.270;27.942;2023-12-22T01:37:58;8.07;;;3.80;;
32455;SDS011;18912;43.270;27.942;2023-12-22T01:40:24;7.20;;;4.13;;
32455;SDS011;18912;43.270;27.942;2023-12-22T01:42:50;10.45;;;4.10;;
32455;SDS011;18912;43.270;27.942;2023-12-22T01:45:16;8.90;;;4.15;;
32455;SDS011;18912;43.270;27.942;2023-12-22T01:47:41;5.30;;;3.13;;
32455;SDS011;18912;43.270;27.942;2023-12-22T01:55:02;8.82;;;4.03;;
32455;SDS011;18912;43.270;27.942;2023-12-22T01:57:28;13.63;;;5.43;;
32455;SDS011;18912;43.270;27.942;2023-12-22T01:59:54;9.80;;;5.07;;
32455;SDS011;18912;43.270;27.942;2023-12-22T02:02:22;16.58;;;5.80;;
32455;SDS011;18912;43.270;27.942;2023-12-22T02:04:47;12.43;;;5.38;;
32455;SDS011;18912;43.270;27.942;2023-12-22T02:07:14;16.65;;;5.55;;
32455;SDS011;18912;43.270;27.942;2023-12-22T02:09:39;46.75;;;13.75;;
32455;SDS011;18912;43.270;27.942;2023-12-22T02:12:05;16.43;;;8.53;;
32455;SDS011;18912;43.270;27.942;2023-12-22T02:14:31;17.92;;;8.27;;
32455;SDS011;18912;43.270;27.942;2023-12-22T02:17:06;17.50;;;7.60;;
32455;SDS011;18912;43.270;27.942;2023-12-22T02:22:07;27.48;;;9.77;;
32455;SDS011;18912;43.270;27.942;2023-12-22T02:24:34;17.92;;;9.00;;
32455;SDS011;18912;43.270;27.942;2023-12-22T02:27:03;22.83;;;10.82;;
32455;SDS011;18912;43.270;27.942;2023-12-22T02:29:37;22.55;;;9.70;;
32455;SDS011;18912;43.270;27.942;2023-12-22T02:32:10;16.83;;;9.05;;
32455;SDS011;18912;43.270;27.942;2023-12-22T02:34:47;17.45;;;8.85;;
32455;SDS011;18912;43.270;27.942;2023-12-22T02:37:16;23.77;;;9.90;;
32455;SDS011;18912;43.270;27.942;2023-12-22T02:39:43;39.67;;;13.88;;
32455;SDS011;18912;43.270;27.942;2023-12-22T02:42:09;98.82;;;33.85;;
32455;SDS011;18912;43.270;27.942;2023-12-22T02:44:36;28.63;;;14.43;;
32455;SDS011;18912;43.270;27.942;2023-12-22T02:47:03;27.30;;;11.13;;
32455;SDS011;18912;43.270;27.942;2023-12-22T02:49:29;22.05;;;9.57;;
32455;SDS011;18912;43.270;27.942;2023-12-22T02:51:54;31.35;;;12.57;;
32455;SDS011;18912;43.270;27.942;2023-12-22T02:54:20;31.17;;;13.50;;
32455;SDS011;18912;43.270;27.942;2023-12-22T02:56:46;30.70;;;13.07;;
32455;SDS011;18912;43.270;27.942;2023-12-22T02:59:12;20.95;;;9.82;;
32455;SDS011;18912;43.270;27.942;2023-12-22T03:01:38;24.33;;;10.85;;
32455;SDS011;18912;43.270;27.942;2023-12-22T03:04:03;28.93;;;13.03;;
32455;SDS011;18912;43.270;27.942;2023-12-22T03:06:29;22.75;;;10.45;;
32455;SDS011;18912;43.270;27.942;2023-12-22T03:08:55;22.57;;;10.13;;
32455;SDS011;18912;43.270;27.942;2023-12-22T03:11:20;30.23;;;12.30;;
32455;SDS011;18912;43.270;27.942;2023-12-22T03:13:46;29.73;;;12.33;;
32455;SDS011;18912;43.270;27.942;2023-12-22T03:16:11;27.47;;;11.77;;
32455;SDS011;18912;43.270;27.942;2023-12-22T03:18:37;18.03;;;9.60;;
32455;SDS011;18912;43.270;27.942;2023-12-22T03:21:04;29.92;;;11.52;;
32455;SDS011;18912;43.270;27.942;2023-12-22T03:23:30;18.85;;;9.45;;
32455;SDS011;18912;43.270;27.942;2023-12-22T03:25:55;29.73;;;14.10;;
32455;SDS011;18912;43.270;27.942;2023-12-22T03:28:21;23.30;;;10.40;;
32455;SDS011;18912;43.270;27.942;2023-12-22T03:30:47;17.87;;;9.87;;
32455;SDS011;18912;43.270;27.942;2023-12-22T03:33:12;23.13;;;12.07;;
32455;SDS011;18912;43.270;27.942;2023-12-22T03:35:38;20.30;;;10.07;;
32455;SDS011;18912;43.270;27.942;2023-12-22T03:38:03;26.37;;;13.00;;
32455;SDS011;18912;43.270;27.942;2023-12-22T03:40:29;25.97;;;11.80;;
32455;SDS011;18912;43.270;27.942;2023-12-22T03:42:55;25.40;;;11.52;;
32455;SDS011;18912;43.270;27.942;2023-12-22T03:45:21;20.88;;;10.20;;
32455;SDS011;18912;43.270;27.942;2023-12-22T03:47:46;26.13;;;12.30;;
32455;SDS011;18912;43.270;27.942;2023-12-22T03:50:12;26.90;;;11.90;;
32455;SDS011;18912;43.270;27.942;2023-12-22T03:52:38;27.00;;;10.43;;
32455;SDS011;18912;43.270;27.942;2023-12-22T03:55:03;24.10;;;11.03;;
32455;SDS011;18912;43.270;27.942;2023-12-22T03:57:29;26.77;;;11.00;;
32455;SDS011;18912;43.270;27.942;2023-12-22T03:59:55;29.50;;;11.57;;
32455;SDS011;18912;43.270;27.942;2023-12-22T04:02:20;23.53;;;11.03;;
32455;SDS011;18912;43.270;27.942;2023-12-22T04:04:46;23.67;;;11.07;;
32455;SDS011;18912;43.270;27.942;2023-12-22T04:07:11;23.17;;;11.70;;
32455;SDS011;18912;43.270;27.942;2023-12-22T04:09:37;24.17;;;11.33;;
32455;SDS011;18912;43.270;27.942;2023-12-22T04:12:04;26.65;;;11.95;;
32455;SDS011;18912;43.270;27.942;2023-12-22T04:14:29;23.23;;;11.63;;
32455;SDS011;18912;43.270;27.942;2023-12-22T04:16:55;27.00;;;11.90;;
32455;SDS011;18912;43.270;27.942;2023-12-22T04:19:21;24.88;;;11.20;;
32455;SDS011;18912;43.270;27.942;2023-12-22T04:21:47;25.97;;;12.13;;
32455;SDS011;18912;43.270;27.942;2023-12-22T04:24:12;29.13;;;13.73;;
32455;SDS011;18912;43.270;27.942;2023-12-22T04:26:38;24.33;;;12.33;;
32455;SDS011;18912;43.270;27.942;2023-12-22T04:29:03;25.83;;;12.53;;
32455;SDS011;18912;43.270;27.942;2023-12-22T04:31:29;27.47;;;11.73;;
32455;SDS011;18912;43.270;27.942;2023-12-22T04:33:54;23.57;;;10.93;;
32455;SDS011;18912;43.270;27.942;2023-12-22T04:36:20;23.08;;;10.73;;
32455;SDS011;18912;43.270;27.942;2023-12-22T04:38:46;22.97;;;10.50;;
32455;SDS011;18912;43.270;27.942;2023-12-22T04:41:12;25.70;;;12.07;;
32455;SDS011;18912;43.270;27.942;2023-12-22T04:43:37;24.80;;;12.20;;
32455;SDS011;18912;43.270;27.942;2023-12-22T04:46:03;26.63;;;11.90;;
32455;SDS011;18912;43.270;27.942;2023-12-22T04:48:28;26.70;;;12.30;;
32455;SDS011;18912;43.270;27.942;2023-12-22T04:50:54;25.63;;;12.30;;
32455;SDS011;18912;43.270;27.942;2023-12-22T04:53:20;28.50;;;12.43;;
32455;SDS011;18912;43.270;27.942;2023-12-22T04:55:46;30.73;;;13.15;;
32455;SDS011;18912;43.270;27.942;2023-12-22T04:58:11;30.85;;;13.40;;
32455;SDS011;18912;43.270;27.942;2023-12-22T05:00:37;23.07;;;10.43;;
32455;SDS011;18912;43.270;27.942;2023-12-22T05:03:02;21.50;;;10.68;;
32455;SDS011;18912;43.270;27.942;2023-12-22T05:05:28;20.13;;;10.30;;
32455;SDS011;18912;43.270;27.942;2023-12-22T05:07:54;25.40;;;10.10;;
32455;SDS011;18912;43.270;27.942;2023-12-22T05:10:20;23.87;;;11.03;;
32455;SDS011;18912;43.270;27.942;2023-12-22T05:12:45;26.37;;;10.70;;
32455;SDS011;18912;43.270;27.942;2023-12-22T05:15:11;20.30;;;9.90;;
32455;SDS011;18912;43.270;27.942;2023-12-22T05:17:36;20.10;;;9.10;;
32455;SDS011;18912;43.270;27.942;2023-12-22T05:20:02;19.37;;;9.63;;
32455;SDS011;18912;43.270;27.942;2023-12-22T05:22:28;19.48;;;10.05;;
32455;SDS011;18912;43.270;27.942;2023-12-22T05:24:57;18.30;;;9.15;;
32455;SDS011;18912;43.270;27.942;2023-12-22T05:27:23;25.80;;;11.07;;
32455;SDS011;18912;43.270;27.942;2023-12-22T05:29:50;23.85;;;9.40;;
32455;SDS011;18912;43.270;27.942;2023-12-22T05:32:15;31.50;;;13.20;;
32455;SDS011;18912;43.270;27.942;2023-12-22T05:34:41;21.30;;;9.93;;
32455;SDS011;18912;43.270;27.942;2023-12-22T05:37:06;24.57;;;10.23;;
32455;SDS011;18912;43.270;27.942;2023-12-22T05:39:32;21.80;;;11.63;;
32455;SDS011;18912;43.270;27.942;2023-12-22T05:41:58;27.50;;;11.47;;
32455;SDS011;18912;43.270;27.942;2023-12-22T05:44:23;19.47;;;9.63;;
32455;SDS011;18912;43.270;27.942;2023-12-22T05:46:49;24.60;;;11.18;;
32455;SDS011;18912;43.270;27.942;2023-12-22T05:49:15;24.63;;;11.80;;
32455;SDS011;18912;43.270;27.942;2023-12-22T05:51:41;34.05;;;13.02;;
32455;SDS011;18912;43.270;27.942;2023-12-22T05:54:07;22.60;;;11.40;;
32455;SDS011;18912;43.270;27.942;2023-12-22T05:56:33;24.58;;;11.43;;
32455;SDS011;18912;43.270;27.942;2023-12-22T05:58:59;39.57;;;13.83;;
32455;SDS011;18912;43.270;27.942;2023-12-22T06:01:25;26.38;;;12.23;;
32455;SDS011;18912;43.270;27.942;2023-12-22T06:03:51;26.43;;;11.53;;
32455;SDS011;18912;43.270;27.942;2023-12-22T06:06:16;30.75;;;13.73;;
32455;SDS011;18912;43.270;27.942;2023-12-22T06:08:43;23.40;;;10.20;;
32455;SDS011;18912;43.270;27.942;2023-12-22T06:11:09;25.63;;;10.67;;
32455;SDS011;18912;43.270;27.942;2023-12-22T06:13:34;25.80;;;12.80;;
32455;SDS011;18912;43.270;27.942;2023-12-22T06:16:00;26.47;;;13.07;;
32455;SDS011;18912;43.270;27.942;2023-12-22T06:18:26;25.27;;;13.88;;
32455;SDS011;18912;43.270;27.942;2023-12-22T06:20:51;26.70;;;12.90;;
32455;SDS011;18912;43.270;27.942;2023-12-22T06:23:17;44.50;;;17.87;;
32455;SDS011;18912;43.270;27.942;2023-12-22T06:25:43;33.28;;;15.93;;
32455;SDS011;18912;43.270;27.942;2023-12-22T06:28:09;28.53;;;13.40;;
32455;SDS011;18912;43.270;27.942;2023-12-22T06:30:35;26.95;;;11.27;;
32455;SDS011;18912;43.270;27.942;2023-12-22T06:33:01;22.90;;;11.33;;
32455;SDS011;18912;43.270;27.942;2023-12-22T06:35:26;19.70;;;10.57;;
32455;SDS011;18912;43.270;27.942;2023-12-22T06:37:52;24.35;;;11.68;;
32455;SDS011;18912;43.270;27.942;2023-12-22T06:40:19;24.92;;;11.30;;
32455;SDS011;18912;43.270;27.942;2023-12-22T06:42:45;21.98;;;10.30;;
32455;SDS011;18912;43.270;27.942;2023-12-22T06:45:10;24.90;;;10.40;;
32455;SDS011;18912;43.270;27.942;2023-12-22T06:47:36;23.17;;;11.60;;
32455;SDS011;18912;43.270;27.942;2023-12-22T06:50:02;31.23;;;13.43;;
32455;SDS011;18912;43.270;27.942;2023-12-22T06:52:28;24.35;;;11.90;;
32455;SDS011;18912;43.270;27.942;2023-12-22T06:57:21;28.63;;;12.23;;
32455;SDS011;18912;43.270;27.942;2023-12-22T06:59:47;23.88;;;11.15;;
32455;SDS011;18912;43.270;27.942;2023-12-22T07:02:14;26.40;;;12.38;;
32455;SDS011;18912;43.270;27.942;2023-12-22T07:04:40;32.05;;;12.95;;
32455;SDS011;18912;43.270;27.942;2023-12-22T07:07:26;25.52;;;12.13;;
32455;SDS011;18912;43.270;27.942;2023-12-22T07:09:51;25.90;;;11.53;;
32455;SDS011;18912;43.270;27.942;2023-12-22T07:12:17;23.10;;;11.87;;
32455;SDS011;18912;43.270;27.942;2023-12-22T07:14:43;24.67;;;11.47;;
32455;SDS011;18912;43.270;27.942;2023-12-22T07:17:09;20.88;;;10.15;;
32455;SDS011;18912;43.270;27.942;2023-12-22T07:19:34;22.93;;;10.73;;
32455;SDS011;18912;43.270;27.942;2023-12-22T07:22:00;24.50;;;10.87;;
32455;SDS011;18912;43.270;27.942;2023-12-22T07:24:27;22.00;;;10.55;;
32455;SDS011;18912;43.270;27.942;2023-12-22T07:26:52;23.07;;;10.57;;
32455;SDS011;18912;43.270;27.942;2023-12-22T07:29:18;23.83;;;10.70;;
32455;SDS011;18912;43.270;27.942;2023-12-22T07:31:43;17.80;;;8.57;;
32455;SDS011;18912;43.270;27.942;2023-12-22T07:34:09;21.20;;;10.07;;
32455;SDS011;18912;43.270;27.942;2023-12-22T07:36:35;24.83;;;11.23;;
32455;SDS011;18912;43.270;27.942;2023-12-22T07:39:00;22.30;;;10.87;;
32455;SDS011;18912;43.270;27.942;2023-12-22T07:41:26;22.17;;;9.47;;
32455;SDS011;18912;43.270;27.942;2023-12-22T07:43:52;37.00;;;14.88;;
32455;SDS011;18912;43.270;27.942;2023-12-22T07:46:18;27.00;;;13.53;;
32455;SDS011;18912;43.270;27.942;2023-12-22T07:48:44;21.70;;;10.43;;
32455;SDS011;18912;43.270;27.942;2023-12-22T07:51:10;25.15;;;11.38;;
32455;SDS011;18912;43.270;27.942;2023-12-22T07:53:36;24.85;;;10.95;;
32455;SDS011;18912;43.270;27.942;2023-12-22T07:56:02;38.17;;;14.30;;
32455;SDS011;18912;43.270;27.942;2023-12-22T07:58:31;20.35;;;10.30;;
32455;SDS011;18912;43.270;27.942;2023-12-22T08:00:57;25.83;;;11.55;;
32455;SDS011;18912;43.270;27.942;2023-12-22T08:03:23;31.70;;;12.32;;
32455;SDS011;18912;43.270;27.942;2023-12-22T08:05:49;23.07;;;9.13;;
32455;SDS011;18912;43.270;27.942;2023-12-22T08:08:14;21.37;;;9.40;;
32455;SDS011;18912;43.270;27.942;2023-12-22T08:10:40;29.83;;;11.48;;
32455;SDS011;18912;43.270;27.942;2023-12-22T08:13:06;26.13;;;10.73;;
32455;SDS011;18912;43.270;27.942;2023-12-22T08:15:32;12.33;;;7.33;;
32455;SDS011;18912;43.270;27.942;2023-12-22T08:17:57;16.70;;;8.67;;
32455;SDS011;18912;43.270;27.942;2023-12-22T08:20:23;12.73;;;6.97;;
32455;SDS011;18912;43.270;27.942;2023-12-22T08:22:49;21.20;;;7.90;;
32455;SDS011;18912;43.270;27.942;2023-12-22T08:25:16;21.25;;;9.90;;
32455;SDS011;18912;43.270;27.942;2023-12-22T08:27:45;15.45;;;8.60;;
32455;SDS011;18912;43.270;27.942;2023-12-22T08:30:11;15.38;;;7.90;;
32455;SDS011;18912;43.270;27.942;2023-12-22T08:32:37;15.32;;;7.95;;
32455;SDS011;18912;43.270;27.942;2023-12-22T08:35:03;12.93;;;7.35;;
32455;SDS011;18912;43.270;27.942;2023-12-22T08:37:29;12.73;;;7.28;;
32455;SDS011;18912;43.270;27.942;2023-12-22T08:39:55;18.95;;;8.18;;
32455;SDS011;18912;43.270;27.942;2023-12-22T08:42:21;17.53;;;8.83;;
32455;SDS011;18912;43.270;27.942;2023-12-22T08:44:49;23.85;;;10.20;;
32455;SDS011;18912;43.270;27.942;2023-12-22T08:47:15;24.67;;;12.57;;
32455;SDS011;18912;43.270;27.942;2023-12-22T08:49:41;21.77;;;11.93;;
32455;SDS011;18912;43.270;27.942;2023-12-22T08:52:07;27.83;;;12.07;;
32455;SDS011;18912;43.270;27.942;2023-12-22T08:54:33;19.38;;;9.38;;
32455;SDS011;18912;43.270;27.942;2023-12-22T08:57:00;17.60;;;7.93;;
32455;SDS011;18912;43.270;27.942;2023-12-22T08:59:27;22.50;;;9.30;;
32455;SDS011;18912;43.270;27.942;2023-12-22T09:01:53;17.13;;;8.80;;
32455;SDS011;18912;43.270;27.942;2023-12-22T09:04:18;17.53;;;7.90;;
32455;SDS011;18912;43.270;27.942;2023-12-22T09:06:46;20.40;;;9.52;;
32455;SDS011;18912;43.270;27.942;2023-12-22T09:09:11;25.57;;;9.37;;
32455;SDS011;18912;43.270;27.942;2023-12-22T09:11:37;10.77;;;4.77;;
32455;SDS011;18912;43.270;27.942;2023-12-22T09:14:04;12.53;;;6.10;;
32455;SDS011;18912;43.270;27.942;2023-12-22T09:16:30;13.15;;;5.88;;
32455;SDS011;18912;43.270;27.942;2023-12-22T09:18:56;22.50;;;10.03;;
32455;SDS011;18912;43.270;27.942;2023-12-22T09:21:22;17.43;;;10.10;;
32455;SDS011;18912;43.270;27.942;2023-12-22T09:23:47;16.53;;;7.80;;
32455;SDS011;18912;43.270;27.942;2023-12-22T09:26:13;16.13;;;7.23;;
32455;SDS011;18912;43.270;27.942;2023-12-22T09:28:40;15.02;;;6.97;;
32455;SDS011;18912;43.270;27.942;2023-12-22T09:31:07;13.32;;;7.07;;
32455;SDS011;18912;43.270;27.942;2023-12-22T09:35:58;18.52;;;8.23;;
32455;SDS011;18912;43.270;27.942;2023-12-22T09:38:25;14.90;;;7.18;;
32455;SDS011;18912;43.270;27.942;2023-12-22T09:40:52;13.45;;;5.50;;
32455;SDS011;18912;43.270;27.942;2023-12-22T09:43:18;9.37;;;4.47;;
32455;SDS011;18912;43.270;27.942;2023-12-22T09:45:48;8.05;;;4.60;;
32455;SDS011;18912;43.270;27.942;2023-12-22T09:48:14;13.77;;;6.78;;
32455;SDS011;18912;43.270;27.942;2023-12-22T09:50:43;11.45;;;5.55;;
32455;SDS011;18912;43.270;27.942;2023-12-22T09:53:14;9.07;;;4.65;;
32455;SDS011;18912;43.270;27.942;2023-12-22T09:55:42;7.43;;;4.35;;
32455;SDS011;18912;43.270;27.942;2023-12-22T09:58:11;12.98;;;6.45;;
32455;SDS011;18912;43.270;27.942;2023-12-22T10:00:39;13.45;;;5.43;;
32455;SDS011;18912;43.270;27.942;2023-12-22T10:03:05;9.43;;;4.85;;
32455;SDS011;18912;43.270;27.942;2023-12-22T10:05:32;10.05;;;5.32;;
32455;SDS011;18912;43.270;27.942;2023-12-22T10:07:59;9.95;;;4.95;;
32455;SDS011;18912;43.270;27.942;2023-12-22T10:10:26;11.77;;;5.88;;
32455;SDS011;18912;43.270;27.942;2023-12-22T10:12:54;7.80;;;4.32;;
32455;SDS011;18912;43.270;27.942;2023-12-22T10:15:21;17.02;;;7.60;;
32455;SDS011;18912;43.270;27.942;2023-12-22T10:17:51;9.95;;;5.88;;
32455;SDS011;18912;43.270;27.942;2023-12-22T10:20:19;20.50;;;8.88;;
32455;SDS011;18912;43.270;27.942;2023-12-22T10:22:45;22.03;;;11.17;;
32455;SDS011;18912;43.270;27.942;2023-12-22T10:25:14;28.25;;;16.25;;
32455;SDS011;18912;43.270;27.942;2023-12-22T10:27:43;23.33;;;10.32;;
32455;SDS011;18912;43.270;27.942;2023-12-22T10:30:09;25.30;;;12.77;;
32455;SDS011;18912;43.270;27.942;2023-12-22T10:32:39;39.38;;;21.70;;
32455;SDS011;18912;43.270;27.942;2023-12-22T10:35:08;25.33;;;12.32;;
32455;SDS011;18912;43.270;27.942;2023-12-22T10:37:34;27.77;;;16.33;;
32455;SDS011;18912;43.270;27.942;2023-12-22T10:42:29;23.13;;;10.57;;
32455;SDS011;18912;43.270;27.942;2023-12-22T10:44:55;31.07;;;11.30;;
32455;SDS011;18912;43.270;27.942;2023-12-22T10:47:21;23.25;;;13.05;;
32455;SDS011;18912;43.270;27.942;2023-12-22T10:49:48;27.30;;;14.65;;
32455;SDS011;18912;43.270;27.942;2023-12-22T10:52:17;24.52;;;14.18;;
32455;SDS011;18912;43.270;27.942;2023-12-22T10:54:43;18.83;;;10.13;;
32455;SDS011;18912;43.270;27.942;2023-12-22T10:57:09;22.65;;;10.10;;
32455;SDS011;18912;43.270;27.942;2023-12-22T11:02:03;27.73;;;9.93;;
32455;SDS011;18912;43.270;27.942;2023-12-22T11:04:30;18.98;;;7.18;;
32455;SDS011;18912;43.270;27.942;2023-12-22T11:06:59;36.65;;;17.13;;
32455;SDS011;18912;43.270;27.942;2023-12-22T11:09:28;14.63;;;7.82;;
32455;SDS011;18912;43.270;27.942;2023-12-22T11:11:57;23.85;;;11.70;;
32455;SDS011;18912;43.270;27.942;2023-12-22T11:14:24;13.43;;;6.72;;
32455;SDS011;18912;43.270;27.942;2023-12-22T11:16:52;11.15;;;5.97;;
32455;SDS011;18912;43.270;27.942;2023-12-22T11:19:20;13.35;;;7.03;;
32455;SDS011;18912;43.270;27.942;2023-12-22T11:21:47;18.45;;;10.27;;
32455;SDS011;18912;43.270;27.942;2023-12-22T11:24:15;14.63;;;6.85;;
32455;SDS011;18912;43.270;27.942;2023-12-22T11:26:42;16.73;;;8.30;;
32455;SDS011;18912;43.270;27.942;2023-12-22T11:29:10;17.17;;;10.35;;
32455;SDS011;18912;43.270;27.942;2023-12-22T11:31:37;17.20;;;9.85;;
32455;SDS011;18912;43.270;27.942;2023-12-22T11:34:06;23.85;;;12.10;;
32455;SDS011;18912;43.270;27.942;2023-12-22T11:36:32;16.77;;;8.38;;
32455;SDS011;18912;43.270;27.942;2023-12-22T11:39:01;15.05;;;8.20;;
32455;SDS011;18912;43.270;27.942;2023-12-22T11:41:29;20.98;;;8.98;;
32455;SDS011;18912;43.270;27.942;2023-12-22T11:43:57;18.08;;;7.20;;
32455;SDS011;18912;43.270;27.942;2023-12-22T11:46:24;23.58;;;12.10;;
32455;SDS011;18912;43.270;27.942;2023-12-22T11:48:51;14.63;;;8.10;;
32455;SDS011;18912;43.270;27.942;2023-12-22T11:51:17;15.02;;;7.75;;
32455;SDS011;18912;43.270;27.942;2023-12-22T11:53:44;21.17;;;9.50;;
32455;SDS011;18912;43.270;27.942;2023-12-22T11:56:10;18.85;;;9.10;;
32455;SDS011;18912;43.270;27.942;2023-12-22T11:58:41;16.80;;;9.20;;
32455;SDS011;18912;43.270;27.942;2023-12-22T12:01:11;17.20;;;9.18;;
32455;SDS011;18912;43.270;27.942;2023-12-22T12:03:40;20.05;;;10.10;;
32455;SDS011;18912;43.270;27.942;2023-12-22T12:06:14;25.73;;;9.70;;
32455;SDS011;18912;43.270;27.942;2023-12-22T12:08:41;18.25;;;8.65;;
32455;SDS011;18912;43.270;27.942;2023-12-22T12:11:07;14.73;;;7.78;;
32455;SDS011;18912;43.270;27.942;2023-12-22T12:13:33;13.77;;;7.67;;
32455;SDS011;18912;43.270;27.942;2023-12-22T12:15:59;21.92;;;8.60;;
32455;SDS011;18912;43.270;27.942;2023-12-22T12:18:30;17.30;;;8.20;;
32455;SDS011;18912;43.270;27.942;2023-12-22T12:20:57;21.63;;;9.73;;
32455;SDS011;18912;43.270;27.942;2023-12-22T12:23:23;23.83;;;10.23;;
32455;SDS011;18912;43.270;27.942;2023-12-22T12:28:15;19.05;;;8.50;;
32455;SDS011;18912;43.270;27.942;2023-12-22T12:30:44;36.63;;;16.92;;
32455;SDS011;18912;43.270;27.942;2023-12-22T12:33:11;16.13;;;7.32;;
32455;SDS011;18912;43.270;27.942;2023-12-22T12:35:38;12.65;;;6.10;;
32455;SDS011;18912;43.270;27.942;2023-12-22T12:38:05;16.40;;;7.85;;
32455;SDS011;18912;43.270;27.942;2023-12-22T12:40:31;12.32;;;6.25;;
32455;SDS011;18912;43.270;27.942;2023-12-22T12:42:59;12.40;;;6.43;;
32455;SDS011;18912;43.270;27.942;2023-12-22T12:45:25;12.65;;;6.15;;
32455;SDS011;18912;43.270;27.942;2023-12-22T12:48:01;11.98;;;6.10;;
32455;SDS011;18912;43.270;27.942;2023-12-22T12:50:28;15.70;;;7.80;;
32455;SDS011;18912;43.270;27.942;2023-12-22T12:52:55;27.60;;;12.85;;
32455;SDS011;18912;43.270;27.942;2023-12-22T12:55:24;34.17;;;15.43;;
32455;SDS011;18912;43.270;27.942;2023-12-22T13:02:50;35.08;;;16.67;;
32455;SDS011;18912;43.270;27.942;2023-12-22T13:05:22;32.05;;;17.08;;
32455;SDS011;18912;43.270;27.942;2023-12-22T13:07:48;23.77;;;13.15;;
32455;SDS011;18912;43.270;27.942;2023-12-22T13:10:26;28.17;;;12.50;;
32455;SDS011;18912;43.270;27.942;2023-12-22T13:12:53;30.55;;;13.82;;
32455;SDS011;18912;43.270;27.942;2023-12-22T13:15:19;28.90;;;12.68;;
32455;SDS011;18912;43.270;27.942;2023-12-22T13:17:46;26.85;;;11.65;;
32455;SDS011;18912;43.270;27.942;2023-12-22T13:20:12;25.90;;;12.25;;
32455;SDS011;18912;43.270;27.942;2023-12-22T13:22:38;32.83;;;11.50;;
32455;SDS011;18912;43.270;27.942;2023-12-22T13:25:04;27.63;;;13.80;;
32455;SDS011;18912;43.270;27.942;2023-12-22T13:27:30;25.52;;;13.27;;
32455;SDS011;18912;43.270;27.942;2023-12-22T13:29:56;29.00;;;12.60;;
32455;SDS011;18912;43.270;27.942;2023-12-22T13:32:22;24.23;;;11.13;;
32455;SDS011;18912;43.270;27.942;2023-12-22T13:34:52;19.38;;;8.60;;
32455;SDS011;18912;43.270;27.942;2023-12-22T13:37:19;17.25;;;8.63;;
32455;SDS011;18912;43.270;27.942;2023-12-22T13:39:49;88.43;;;35.60;;
32455;SDS011;18912;43.270;27.942;2023-12-22T13:42:16;39.63;;;17.65;;
32455;SDS011;18912;43.270;27.942;2023-12-22T13:44:45;18.92;;;8.45;;
32455;SDS011;18912;43.270;27.942;2023-12-22T13:47:17;12.70;;;6.90;;
32455;SDS011;18912;43.270;27.942;2023-12-22T13:49:47;13.63;;;6.00;;
32455;SDS011;18912;43.270;27.942;2023-12-22T13:52:26;14.60;;;4.38;;
32455;SDS011;18912;43.270;27.942;2023-12-22T13:55:01;10.23;;;5.10;;
32455;SDS011;18912;43.270;27.942;2023-12-22T13:57:34;8.90;;;3.53;;
32455;SDS011;18912;43.270;27.942;2023-12-22T14:00:00;6.40;;;3.30;;
32455;SDS011;18912;43.270;27.942;2023-12-22T14:02:25;7.43;;;4.07;;
32455;SDS011;18912;43.270;27.942;2023-12-22T14:04:51;6.43;;;3.10;;
32455;SDS011;18912;43.270;27.942;2023-12-22T14:07:17;8.73;;;4.47;;
32455;SDS011;18912;43.270;27.942;2023-12-22T14:09:43;12.65;;;4.28;;
32455;SDS011;18912;43.270;27.942;2023-12-22T14:12:09;8.50;;;4.80;;
32455;SDS011;18912;43.270;27.942;2023-12-22T14:14:34;9.07;;;6.07;;
32455;SDS011;18912;43.270;27.942;2023-12-22T14:17:00;8.70;;;4.37;;
32455;SDS011;18912;43.270;27.942;2023-12-22T14:19:26;18.00;;;8.30;;
32455;SDS011;18912;43.270;27.942;2023-12-22T14:21:51;17.23;;;8.43;;
32455;SDS011;18912;43.270;27.942;2023-12-22T14:24:17;18.87;;;7.50;;
32455;SDS011;18912;43.270;27.942;2023-12-22T14:26:53;11.40;;;6.25;;
32455;SDS011;18912;43.270;27.942;2023-12-22T14:29:20;21.83;;;8.67;;
32455;SDS011;18912;43.270;27.942;2023-12-22T14:31:47;11.65;;;4.60;;
32455;SDS011;18912;43.270;27.942;2023-12-22T14:34:14;10.45;;;6.78;;
32455;SDS011;18912;43.270;27.942;2023-12-22T14:36:39;12.33;;;6.53;;
32455;SDS011;18912;43.270;27.942;2023-12-22T14:39:05;6.40;;;3.83;;